Time;durP1;ratioP1;P1;durP2;ratioP2;P2;SDS_P1;SDS_P2;PMS_P1;PMS_P2;Temp;Humidity;BMP_temperature;BMP_pressure;BME280_temperature;BME280_humidity;BME280_pressure;Samples;Min_cycle;Max_cycle;Signal;HPM_P1;HPM_P2
2021/05/08 00:02:02;;;;;;;6.63;4.03;;;6.00;82.10;;;;;;5134522;27;20051;-72
2021/05/08 00:04:27;;;;;;;9.60;3.93;;;6.00;82.30;;;;;;5134127;27;20043;-72
2021/05/08 00:06:53;;;;;;;6.23;3.87;;;6.00;82.50;;;;;;5133391;27;20054;-71
2021/05/08 00:09:19;;;;;;;8.80;3.80;;;5.90;82.50;;;;;;5134235;27;20049;-72
2021/05/08 00:11:45;;;;;;;7.40;4.93;;;5.90;82.60;;;;;;5134117;27;20062;-72
2021/05/08 00:14:11;;;;;;;10.00;4.20;;;5.90;82.80;;;;;;5133629;27;20691;-72
2021/05/08 00:16:37;;;;;;;8.47;4.53;;;5.90;82.80;;;;;;5134221;27;20043;-71
2021/05/08 00:19:04;;;;;;;7.97;4.10;;;5.90;82.90;;;;;;5134055;27;20067;-71
2021/05/08 00:21:29;;;;;;;10.07;4.53;;;5.90;83.00;;;;;;5133101;27;20381;-71
2021/05/08 00:23:55;;;;;;;8.00;4.57;;;5.80;83.00;;;;;;5133977;27;20071;-71
2021/05/08 00:26:21;;;;;;;7.03;4.13;;;5.80;83.20;;;;;;5133946;27;20137;-71
2021/05/08 00:28:48;;;;;;;9.03;4.27;;;5.70;83.20;;;;;;5133318;27;20039;-71
2021/05/08 00:31:14;;;;;;;9.80;4.90;;;5.70;83.50;;;;;;5133866;27;20050;-71
2021/05/08 00:33:40;;;;;;;7.77;4.73;;;5.60;83.50;;;;;;5134035;27;20292;-71
2021/05/08 00:36:07;;;;;;;7.93;4.03;;;5.60;83.70;;;;;;5133439;27;20349;-71
2021/05/08 00:38:33;;;;;;;7.70;4.47;;;5.60;83.80;;;;;;5133701;27;20051;-71
2021/05/08 00:40:58;;;;;;;10.80;4.03;;;5.60;83.90;;;;;;5133053;27;20293;-71
2021/05/08 00:43:24;;;;;;;10.47;4.80;;;5.60;84.00;;;;;;5133557;27;20047;-71
2021/05/08 00:45:50;;;;;;;7.43;4.30;;;5.50;84.10;;;;;;5133507;27;20047;-71
2021/05/08 00:48:16;;;;;;;8.07;4.40;;;5.50;84.20;;;;;;5132591;27;20784;-72
2021/05/08 00:50:43;;;;;;;6.43;4.67;;;5.50;84.30;;;;;;5133362;27;20039;-71
2021/05/08 00:53:09;;;;;;;10.57;4.60;;;5.50;84.40;;;;;;5133585;27;20149;-71
2021/05/08 00:55:37;;;;;;;10.50;4.03;;;5.50;84.50;;;;;;5132595;27;20300;-71
2021/05/08 00:58:06;;;;;;;7.60;3.70;;;5.50;84.60;;;;;;5133291;27;20319;-71
2021/05/08 01:00:32;;;;;;;8.40;4.30;;;5.40;84.50;;;;;;5133327;27;20293;-71
2021/05/08 01:02:58;;;;;;;8.00;4.60;;;5.40;84.60;;;;;;5132239;27;20814;-71
2021/05/08 01:05:23;;;;;;;13.87;4.70;;;5.40;84.60;;;;;;5132889;27;20297;-71
2021/05/08 01:07:50;;;;;;;8.20;4.80;;;5.40;84.70;;;;;;5133302;27;20043;-71
2021/05/08 01:10:16;;;;;;;8.63;4.93;;;5.40;84.60;;;;;;5132413;27;20074;-71
2021/05/08 01:12:43;;;;;;;10.27;5.63;;;5.40;84.80;;;;;;5133170;27;20316;-72
2021/05/08 01:15:12;;;;;;;9.63;5.07;;;5.40;84.90;;;;;;5133271;27;20297;-71
2021/05/08 01:17:41;;;;;;;10.55;5.22;;;5.30;84.80;;;;;;5132638;27;20309;-71
2021/05/08 01:20:08;;;;;;;15.80;6.13;;;5.30;84.90;;;;;;5133337;27;20039;-71
2021/05/08 01:22:35;;;;;;;10.97;5.80;;;5.30;85.00;;;;;;5132933;27;20296;-71
2021/05/08 01:25:06;;;;;;;9.93;5.43;;;5.20;85.50;;;;;;5132087;27;20309;-71
2021/05/08 01:27:32;;;;;;;8.90;5.40;;;5.20;85.50;;;;;;5133078;27;20288;-71
2021/05/08 01:29:57;;;;;;;7.77;4.20;;;5.10;85.70;;;;;;5132752;27;20301;-71
2021/05/08 01:32:23;;;;;;;7.43;4.43;;;5.00;85.80;;;;;;5131986;27;20099;-71
2021/05/08 01:34:48;;;;;;;10.43;4.33;;;5.00;85.80;;;;;;5132727;27;20043;-71
2021/05/08 01:37:14;;;;;;;6.10;4.43;;;4.90;86.00;;;;;;5132021;27;20403;-71
2021/05/08 01:39:40;;;;;;;6.90;4.20;;;4.90;86.00;;;;;;5131558;27;20498;-71
2021/05/08 01:42:05;;;;;;;7.53;3.90;;;4.80;86.00;;;;;;5132931;27;20071;-71
2021/05/08 01:44:31;;;;;;;9.43;4.73;;;4.80;86.30;;;;;;5131992;27;20043;-71
2021/05/08 01:46:57;;;;;;;8.23;4.50;;;4.80;86.50;;;;;;5132580;27;20043;-71
2021/05/08 01:49:22;;;;;;;8.63;4.40;;;4.80;86.30;;;;;;5132632;27;20039;-71
2021/05/08 01:51:48;;;;;;;6.83;3.77;;;4.80;86.60;;;;;;5131577;27;20047;-72
2021/05/08 01:54:15;;;;;;;7.83;4.17;;;4.80;86.50;;;;;;5132140;28;20062;-71
2021/05/08 01:56:41;;;;;;;7.70;5.33;;;4.80;86.50;;;;;;5132455;27;20062;-71
2021/05/08 01:59:07;;;;;;;6.50;3.93;;;4.80;86.50;;;;;;5132023;27;20781;-71
2021/05/08 02:01:33;;;;;;;7.70;4.17;;;4.80;86.60;;;;;;5136196;27;20487;-71
2021/05/08 02:03:58;;;;;;;6.53;4.47;;;4.80;86.60;;;;;;5136620;27;20051;-71
2021/05/08 02:06:24;;;;;;;5.63;4.33;;;4.80;86.50;;;;;;5136096;27;20134;-71
2021/05/08 02:08:49;;;;;;;7.13;4.50;;;4.80;86.80;;;;;;5136604;27;20043;-71
2021/05/08 02:11:15;;;;;;;7.97;4.40;;;4.70;86.80;;;;;;5136536;27;20051;-71
2021/05/08 02:13:42;;;;;;;6.50;4.07;;;4.70;86.90;;;;;;5135759;27;20047;-71
2021/05/08 02:16:08;;;;;;;10.90;4.73;;;4.70;86.90;;;;;;5136640;27;20316;-71
2021/05/08 02:18:33;;;;;;;9.50;4.67;;;4.60;87.10;;;;;;5136559;27;20050;-71
2021/05/08 02:20:59;;;;;;;7.77;4.83;;;4.60;87.20;;;;;;5135757;27;20061;-71
2021/05/08 02:23:25;;;;;;;10.20;5.27;;;4.60;87.20;;;;;;5136471;27;20475;-71
2021/05/08 02:25:50;;;;;;;7.47;4.43;;;4.60;87.30;;;;;;5136041;27;20047;-71
2021/05/08 02:28:16;;;;;;;6.57;4.93;;;4.60;87.30;;;;;;5135296;27;20166;-71
2021/05/08 02:30:42;;;;;;;7.80;4.90;;;4.60;87.30;;;;;;5136177;27;20138;-71
2021/05/08 02:33:09;;;;;;;10.27;5.60;;;4.50;87.50;;;;;;5136515;27;20051;-71
2021/05/08 02:35:36;;;;;;;6.47;5.40;;;4.50;87.80;;;;;;5135507;27;20323;-71
2021/05/08 02:38:02;;;;;;;8.77;5.60;;;4.50;87.80;;;;;;5136163;27;20296;-71
2021/05/08 02:40:31;;;;;;;7.13;5.57;;;4.50;88.00;;;;;;5135168;27;20754;-71
2021/05/08 02:42:57;;;;;;;8.87;5.40;;;4.50;87.80;;;;;;5135859;27;20292;-71
2021/05/08 02:45:23;;;;;;;9.17;5.43;;;4.40;87.90;;;;;;5135718;27;20776;-70
2021/05/08 02:47:50;;;;;;;9.40;5.67;;;4.40;88.20;;;;;;5135346;27;20292;-71
2021/05/08 02:50:18;;;;;;;8.57;5.77;;;4.40;88.20;;;;;;5135832;27;20043;-70
2021/05/08 02:52:44;;;;;;;10.17;6.93;;;4.30;88.50;;;;;;5135653;27;20812;-71
2021/05/08 02:55:11;;;;;;;8.60;6.10;;;4.30;88.70;;;;;;5134806;27;20308;-71
2021/05/08 02:57:37;;;;;;;12.10;5.60;;;4.20;88.50;;;;;;5135891;27;20384;-71
2021/05/08 03:00:06;;;;;;;14.17;5.77;;;4.20;88.60;;;;;;5135312;27;21023;-71
2021/05/08 03:02:38;;;;;;;7.63;6.63;;;4.20;88.80;;;;;;5135295;27;20047;-71
2021/05/08 03:05:05;;;;;;;8.30;5.90;;;4.10;89.10;;;;;;5135532;27;20297;-71
2021/05/08 03:07:31;;;;;;;9.43;6.37;;;4.10;89.20;;;;;;5135375;27;20307;-71
2021/05/08 03:09:57;;;;;;;10.60;6.10;;;4.10;89.10;;;;;;5134546;27;20301;-70
2021/05/08 03:12:22;;;;;;;7.70;6.17;;;4.10;89.30;;;;;;5135293;27;20051;-70
2021/05/08 03:14:49;;;;;;;9.37;5.80;;;4.10;89.10;;;;;;5135481;27;20051;-71
2021/05/08 03:17:14;;;;;;;8.83;5.80;;;4.10;89.30;;;;;;5134380;27;20334;-71
2021/05/08 03:19:40;;;;;;;10.60;6.27;;;4.10;89.70;;;;;;5135671;27;20047;-71
2021/05/08 03:22:07;;;;;;;10.50;6.87;;;4.00;89.80;;;;;;5135677;27;20047;-70
2021/05/08 03:24:33;;;;;;;7.93;6.27;;;4.00;89.60;;;;;;5134282;27;20339;-70
2021/05/08 03:26:59;;;;;;;11.60;6.07;;;4.00;89.50;;;;;;5134997;27;20301;-70
2021/05/08 03:29:25;;;;;;;11.27;7.07;;;4.00;90.10;;;;;;5135230;27;20043;-71
2021/05/08 03:31:51;;;;;;;11.03;6.30;;;3.90;90.00;;;;;;5134111;27;20365;-71
2021/05/08 03:34:17;;;;;;;9.83;6.30;;;3.90;90.10;;;;;;5135162;27;20078;-70
2021/05/08 03:36:44;;;;;;;9.53;6.23;;;3.90;90.20;;;;;;5134087;27;20516;-70
2021/05/08 03:39:10;;;;;;;9.77;6.10;;;4.00;90.00;;;;;;5134935;27;20292;-70
2021/05/08 03:41:35;;;;;;;8.30;6.47;;;3.90;90.00;;;;;;5134917;27;20067;-70
2021/05/08 03:44:01;;;;;;;8.80;6.70;;;3.80;90.00;;;;;;5134274;27;20047;-70
2021/05/08 03:46:27;;;;;;;6.90;5.00;;;3.80;90.20;;;;;;5134810;27;20050;-70
2021/05/08 03:48:52;;;;;;;8.73;6.33;;;3.70;90.30;;;;;;5134780;27;20558;-70
2021/05/08 03:51:23;;;;;;;6.97;5.17;;;3.60;90.10;;;;;;5133744;27;20114;-69
2021/05/08 03:53:52;;;;;;;7.10;5.67;;;3.50;90.30;;;;;;5134303;27;20147;-70
2021/05/08 03:56:18;;;;;;;12.47;4.77;;;3.40;90.40;;;;;;5134365;27;20799;-70
2021/05/08 03:58:44;;;;;;;7.67;4.77;;;3.40;90.30;;;;;;5133995;27;20300;-70
2021/05/08 04:01:09;;;;;;;9.83;5.10;;;3.40;90.50;;;;;;5134853;27;20543;-70
2021/05/08 04:03:37;;;;;;;11.30;5.10;;;3.30;90.50;;;;;;5134330;27;20376;-70
2021/05/08 04:06:05;;;;;;;6.97;4.93;;;3.40;90.50;;;;;;5133469;27;20697;-70
2021/05/08 04:08:30;;;;;;;6.67;5.17;;;3.40;90.40;;;;;;5134147;27;20564;-70
2021/05/08 04:10:56;;;;;;;5.80;4.83;;;3.40;90.30;;;;;;5134261;27;20095;-70
2021/05/08 04:13:21;;;;;;;7.70;5.00;;;3.40;90.40;;;;;;5133617;27;20047;-70
2021/05/08 04:15:48;;;;;;;7.73;5.77;;;3.40;90.60;;;;;;5134297;27;20091;-70
2021/05/08 04:18:13;;;;;;;9.60;5.77;;;3.40;90.70;;;;;;5134299;27;20305;-70
2021/05/08 04:20:39;;;;;;;10.80;5.97;;;3.50;90.60;;;;;;5133814;27;20511;-70
2021/05/08 04:23:06;;;;;;;11.60;6.90;;;3.50;90.60;;;;;;5133566;27;20047;-70
2021/05/08 04:25:37;;;;;;;;;;;3.50;90.60;;;;;;5134479;27;20330;-70
2021/05/08 04:28:03;;;;;;;10.93;5.50;;;3.70;91.00;;;;;;5133233;27;20029;-70
2021/05/08 04:30:31;;;;;;;6.70;5.37;;;3.80;90.50;;;;;;5133698;27;20499;-70
2021/05/08 04:32:56;;;;;;;7.13;4.73;;;3.80;90.30;;;;;;5133463;27;20376;-70
2021/05/08 04:35:22;;;;;;;9.37;6.20;;;3.70;90.30;;;;;;5133690;27;20698;-69
2021/05/08 04:37:48;;;;;;;9.07;5.27;;;3.70;90.30;;;;;;5133492;27;20483;-69
2021/05/08 04:40:14;;;;;;;7.53;5.10;;;3.70;90.30;;;;;;5133009;27;20304;-70
2021/05/08 04:42:40;;;;;;;6.63;5.00;;;3.70;90.40;;;;;;5134064;27;20142;-69
2021/05/08 04:45:06;;;;;;;8.90;5.93;;;3.70;90.40;;;;;;5133673;27;20051;-69
2021/05/08 04:47:32;;;;;;;7.80;6.30;;;3.80;90.40;;;;;;5132742;27;20050;-70
2021/05/08 04:50:00;;;;;;;9.83;6.17;;;3.80;90.50;;;;;;5133365;27;20301;-69
2021/05/08 04:52:27;;;;;;;9.10;7.37;;;3.80;90.60;;;;;;5133466;27;20313;-69
2021/05/08 04:54:57;;;;;;;9.73;6.90;;;3.80;90.70;;;;;;5132144;27;20374;-69
2021/05/08 04:57:23;;;;;;;7.77;6.50;;;3.90;90.70;;;;;;5132577;27;20412;-69
2021/05/08 04:59:49;;;;;;;10.27;6.63;;;4.00;90.50;;;;;;5132699;27;20054;-69
2021/05/08 05:02:14;;;;;;;12.50;6.90;;;4.10;90.80;;;;;;5129018;27;20126;-70
2021/05/08 05:04:40;;;;;;;8.73;7.47;;;4.20;90.40;;;;;;5133016;27;20047;-69
2021/05/08 05:07:06;;;;;;;11.53;7.03;;;4.30;90.40;;;;;;5132891;27;20042;-69
2021/05/08 05:09:37;;;;;;;17.85;7.60;;;4.50;90.60;;;;;;5132140;27;20039;-69
2021/05/08 05:12:04;;;;;;;9.43;7.70;;;4.70;90.70;;;;;;5132907;27;20388;-69
2021/05/08 05:14:30;;;;;;;12.23;8.30;;;5.00;90.50;;;;;;5132375;27;20345;-70
2021/05/08 05:16:56;;;;;;;9.30;7.63;;;5.30;90.40;;;;;;5131679;27;20051;-70
2021/05/08 05:19:21;;;;;;;10.53;8.10;;;5.70;90.10;;;;;;5132302;27;20784;-70
2021/05/08 05:21:48;;;;;;;9.93;7.87;;;5.80;89.40;;;;;;5132609;27;20076;-70
2021/05/08 05:24:13;;;;;;;10.27;7.70;;;5.80;88.90;;;;;;5131721;27;20067;-70
2021/05/08 05:26:40;;;;;;;9.93;8.43;;;5.70;88.90;;;;;;5132956;27;20800;-70
2021/05/08 05:29:09;;;;;;;11.70;9.30;;;5.60;89.20;;;;;;5132198;27;20773;-70
2021/05/08 05:31:39;;;;;;;11.77;8.70;;;5.60;89.50;;;;;;5131811;27;20387;-70
2021/05/08 05:34:05;;;;;;;11.50;8.80;;;5.60;89.30;;;;;;5131828;27;20373;-70
2021/05/08 05:36:32;;;;;;;11.77;9.93;;;5.60;89.20;;;;;;5131342;27;20300;-69
2021/05/08 05:38:59;;;;;;;10.43;9.33;;;5.60;88.80;;;;;;5131943;27;20284;-70
2021/05/08 05:41:25;;;;;;;12.13;10.00;;;5.60;88.50;;;;;;5132035;27;20346;-70
2021/05/08 05:43:51;;;;;;;11.37;9.33;;;5.70;88.40;;;;;;5131028;27;20345;-69
2021/05/08 05:46:16;;;;;;;13.13;9.47;;;5.70;88.00;;;;;;5132201;27;20296;-69
2021/05/08 05:48:42;;;;;;;13.57;10.17;;;5.70;87.80;;;;;;5132432;27;20464;-71
2021/05/08 05:51:09;;;;;;;11.67;9.67;;;5.70;87.80;;;;;;5132106;27;20039;-70
2021/05/08 05:53:36;;;;;;;12.70;10.57;;;5.70;87.70;;;;;;5131667;27;20307;-70
2021/05/08 05:56:02;;;;;;;10.77;9.03;;;5.70;87.70;;;;;;5132005;28;20301;-70
2021/05/08 05:58:35;;;;;;;11.00;9.77;;;5.80;88.40;;;;;;5129090;28;20391;-70
2021/05/08 06:01:00;;;;;;;12.23;9.13;;;6.40;87.60;;;;;;5131685;28;20293;-70
2021/05/08 06:03:26;;;;;;;12.13;9.70;;;7.00;86.20;;;;;;5131530;28;20071;-70
2021/05/08 06:05:52;;;;;;;14.53;9.43;;;7.40;84.70;;;;;;5130944;28;20041;-70
2021/05/08 06:08:18;;;;;;;13.13;9.67;;;7.80;84.20;;;;;;5131718;27;20051;-71
2021/05/08 06:10:43;;;;;;;11.50;9.30;;;8.20;83.30;;;;;;5131421;28;20071;-71
2021/05/08 06:13:09;;;;;;;10.43;9.20;;;8.20;82.10;;;;;;5131251;28;20478;-70
2021/05/08 06:15:35;;;;;;;9.77;8.57;;;8.10;82.10;;;;;;5130905;28;20039;-70
2021/05/08 06:18:01;;;;;;;11.63;8.57;;;8.00;82.00;;;;;;5131403;28;20080;-70
2021/05/08 06:20:27;;;;;;;10.50;8.93;;;7.80;81.30;;;;;;5131130;27;20285;-70
2021/05/08 06:22:53;;;;;;;10.57;9.37;;;7.80;81.50;;;;;;5131918;28;20091;-71
2021/05/08 06:25:20;;;;;;;11.03;9.47;;;7.90;81.40;;;;;;5131721;27;20544;-71
2021/05/08 06:27:46;;;;;;;15.47;9.37;;;8.10;81.20;;;;;;5131184;28;20150;-71
2021/05/08 06:30:12;;;;;;;11.27;9.97;;;8.20;80.20;;;;;;5131586;28;20812;-72
2021/05/08 06:32:38;;;;;;;10.63;9.00;;;8.40;80.40;;;;;;5130843;27;20050;-71
2021/05/08 06:35:04;;;;;;;10.97;9.03;;;8.90;79.80;;;;;;5131420;28;20289;-71
2021/05/08 06:37:30;;;;;;;11.87;9.63;;;9.20;78.30;;;;;;5131290;28;20804;-71
2021/05/08 06:39:56;;;;;;;13.37;9.47;;;9.40;77.30;;;;;;5130465;27;20289;-71
2021/05/08 06:42:22;;;;;;;11.47;9.40;;;9.50;75.80;;;;;;5131240;27;20415;-70
2021/05/08 06:44:47;;;;;;;12.33;10.10;;;9.50;76.40;;;;;;5131070;27;20297;-70
2021/05/08 06:47:16;;;;;;;13.10;10.07;;;9.70;76.50;;;;;;5133832;27;20047;-70
2021/05/08 06:49:42;;;;;;;13.30;10.23;;;9.80;74.90;;;;;;5135287;27;20054;-70
2021/05/08 06:52:09;;;;;;;12.87;9.67;;;9.90;75.10;;;;;;5135269;27;20058;-70
2021/05/08 06:54:34;;;;;;;10.83;9.73;;;9.90;74.50;;;;;;5134015;27;20047;-70
2021/05/08 06:57:00;;;;;;;12.63;10.40;;;10.20;74.30;;;;;;5134668;27;20411;-71
2021/05/08 06:59:26;;;;;;;12.07;9.73;;;10.30;73.50;;;;;;5134914;27;20072;-70
2021/05/08 07:01:52;;;;;;;11.73;9.97;;;10.50;73.10;;;;;;5134259;27;20043;-71
2021/05/08 07:04:18;;;;;;;10.73;9.63;;;10.50;72.50;;;;;;5134845;27;20530;-70
2021/05/08 07:06:43;;;;;;;11.47;9.30;;;10.50;71.00;;;;;;5134968;27;20054;-70
2021/05/08 07:09:09;;;;;;;12.13;10.40;;;10.50;70.10;;;;;;5134473;27;20083;-70
2021/05/08 07:11:35;;;;;;;13.13;10.47;;;10.50;70.70;;;;;;5134682;27;20141;-70
2021/05/08 07:14:05;;;;;;;11.50;10.30;;;10.60;70.60;;;;;;5134371;27;20043;-70
2021/05/08 07:16:31;;;;;;;14.00;11.03;;;10.60;69.10;;;;;;5134188;27;20047;-70
2021/05/08 07:18:57;;;;;;;11.93;10.73;;;10.70;69.50;;;;;;5134576;27;20067;-71
2021/05/08 07:21:24;;;;;;;12.63;9.90;;;10.80;69.50;;;;;;5134553;27;20466;-70
2021/05/08 07:23:50;;;;;;;12.30;9.03;;;11.00;68.80;;;;;;5134079;27;20050;-71
2021/05/08 07:26:16;;;;;;;12.10;9.13;;;11.10;67.20;;;;;;5134753;27;20035;-73
2021/05/08 07:28:41;;;;;;;10.67;8.67;;;11.10;66.30;;;;;;5134166;27;20059;-70
2021/05/08 07:31:07;;;;;;;10.23;8.30;;;11.10;66.30;;;;;;5134239;27;20043;-71
2021/05/08 07:33:33;;;;;;;9.43;8.23;;;11.10;65.80;;;;;;5134476;27;20043;-70
2021/05/08 07:35:59;;;;;;;8.93;8.03;;;11.20;65.90;;;;;;5133749;27;20070;-70
2021/05/08 07:38:24;;;;;;;10.33;7.20;;;11.20;65.20;;;;;;5134475;27;20479;-71
2021/05/08 07:40:51;;;;;;;9.00;8.07;;;11.30;64.70;;;;;;5134221;27;20039;-70
2021/05/08 07:43:18;;;;;;;8.07;7.03;;;11.30;64.70;;;;;;5133390;27;20043;-71
2021/05/08 07:45:46;;;;;;;8.97;6.07;;;11.40;64.60;;;;;;5134082;27;20073;-71
2021/05/08 07:48:12;;;;;;;10.60;5.43;;;11.50;63.20;;;;;;5134295;27;20134;-72
2021/05/08 07:50:39;;;;;;;7.90;6.40;;;11.60;62.60;;;;;;5133486;27;20134;-71
2021/05/08 07:53:05;;;;;;;6.77;6.07;;;11.80;61.90;;;;;;5133762;27;20081;-71
2021/05/08 07:55:30;;;;;;;8.37;7.00;;;11.90;62.00;;;;;;5133981;27;20148;-71
2021/05/08 07:57:56;;;;;;;7.80;6.23;;;11.90;62.20;;;;;;5131833;27;20122;-72
2021/05/08 08:00:23;;;;;;;8.70;5.97;;;12.00;61.70;;;;;;5134021;27;20505;-71
2021/05/08 08:03:08;;;;;;;8.27;5.33;;;12.10;61.80;;;;;;5133059;27;20126;-71
2021/05/08 08:05:34;;;;;;;9.33;5.47;;;12.20;60.30;;;;;;5133145;27;20440;-72
2021/05/08 08:07:59;;;;;;;8.37;5.80;;;12.20;60.30;;;;;;5133643;27;20043;-73
2021/05/08 08:10:25;;;;;;;8.63;6.13;;;12.20;59.90;;;;;;5133551;27;20049;-71
2021/05/08 08:12:51;;;;;;;8.40;5.50;;;12.20;59.60;;;;;;5133121;27;20491;-72
2021/05/08 08:15:17;;;;;;;9.27;6.27;;;12.20;59.10;;;;;;5134127;27;20047;-71
2021/05/08 08:17:46;;;;;;;7.47;5.27;;;12.20;59.40;;;;;;5134082;27;20047;-71
2021/05/08 08:20:15;;;;;;;7.63;5.77;;;12.30;59.20;;;;;;5133308;27;20062;-71
2021/05/08 08:22:42;;;;;;;7.47;5.77;;;12.30;58.60;;;;;;5133928;27;20069;-71
2021/05/08 08:25:10;;;;;;;7.57;5.93;;;12.30;57.50;;;;;;5133299;27;20047;-71
2021/05/08 08:27:36;;;;;;;10.27;6.40;;;12.30;57.70;;;;;;5133718;27;20043;-71
2021/05/08 08:30:04;;;;;;;7.57;6.10;;;12.30;57.80;;;;;;5132704;27;20419;-71
2021/05/08 08:32:30;;;;;;;7.57;6.13;;;12.30;58.30;;;;;;5132073;27;20047;-71
2021/05/08 08:34:55;;;;;;;8.73;6.17;;;12.40;57.90;;;;;;5133544;27;20453;-71
2021/05/08 08:37:21;;;;;;;8.40;5.67;;;12.40;58.20;;;;;;5133296;27;20487;-71
2021/05/08 08:39:47;;;;;;;8.43;5.90;;;12.50;58.00;;;;;;5132816;27;20046;-71
2021/05/08 08:42:12;;;;;;;7.33;6.10;;;12.60;57.90;;;;;;5133587;27;20055;-71
2021/05/08 08:44:38;;;;;;;8.67;6.07;;;12.70;57.60;;;;;;5133837;27;20072;-71
2021/05/08 08:47:05;;;;;;;9.07;6.07;;;12.80;57.90;;;;;;5132456;27;20051;-71
2021/05/08 08:49:33;;;;;;;7.10;6.13;;;12.90;57.50;;;;;;5133430;27;20039;-71
2021/05/08 08:51:59;;;;;;;6.97;5.90;;;13.00;56.60;;;;;;5133162;27;20107;-71
2021/05/08 08:54:24;;;;;;;8.83;5.97;;;13.00;56.40;;;;;;5131745;27;20133;-71
2021/05/08 08:56:50;;;;;;;8.90;6.57;;;13.00;55.50;;;;;;5133168;27;20055;-71
2021/05/08 09:01:46;;;;;;;7.67;5.53;;;12.80;54.60;;;;;;5132252;27;20051;-71
2021/05/08 09:04:15;;;;;;;9.50;4.83;;;12.80;54.70;;;;;;5132831;27;20073;-70
2021/05/08 09:06:43;;;;;;;8.33;4.90;;;12.70;53.00;;;;;;5132804;27;20473;-72
2021/05/08 09:09:10;;;;;;;7.13;5.57;;;12.70;52.30;;;;;;5132133;27;20074;-72
2021/05/08 09:12:11;;;;;;;7.77;5.23;;;13.00;52.70;;;;;;5132233;27;20074;-72
2021/05/08 09:14:36;;;;;;;10.27;5.47;;;13.20;52.40;;;;;;5120692;27;20047;-72
2021/05/08 09:17:08;;;;;;;7.47;5.20;;;13.40;52.90;;;;;;5132645;27;20544;-71
2021/05/08 09:19:54;;;;;;;;;;;13.50;52.30;;;;;;5133217;27;20039;-73
2021/05/08 09:22:36;;;;;;;8.73;4.50;;;13.70;50.60;;;;;;5132027;27;19926;-72
2021/05/08 09:25:12;;;;;;;;;;;13.80;51.30;;;;;;5132812;27;20479;-72
2021/05/08 09:27:57;;;;;;;7.63;4.30;;;13.90;50.30;;;;;;5133085;27;20010;-71
2021/05/08 09:30:25;;;;;;;7.40;4.67;;;14.10;52.50;;;;;;5131887;27;20519;-72
2021/05/08 09:32:54;;;;;;;7.77;5.20;;;14.00;51.00;;;;;;5132347;27;20157;-71
2021/05/08 09:35:20;;;;;;;9.93;5.33;;;14.00;49.90;;;;;;5132551;27;20126;-74
2021/05/08 09:37:49;;;;;;;9.53;6.20;;;14.00;49.20;;;;;;5131763;27;20046;-72
2021/05/08 09:40:22;;;;;;;10.00;5.80;;;13.90;48.70;;;;;;5132390;27;20054;-72
2021/05/08 09:42:53;;;;;;;9.13;6.37;;;14.00;48.80;;;;;;5131789;27;20087;-71
2021/05/08 09:45:21;;;;;;;10.00;6.07;;;14.10;48.00;;;;;;5131988;27;20545;-72
2021/05/08 09:47:47;;;;;;;9.43;5.93;;;14.20;48.40;;;;;;5132449;27;20051;-72
2021/05/08 09:50:14;;;;;;;10.63;6.10;;;14.10;47.90;;;;;;5131276;27;20046;-77
2021/05/08 09:52:48;;;;;;;8.57;5.90;;;14.10;48.20;;;;;;5132489;27;20076;-73
2021/05/08 09:55:15;;;;;;;9.47;6.67;;;14.20;47.90;;;;;;5131927;27;20423;-73
2021/05/08 09:57:53;;;;;;;11.90;7.53;;;14.20;48.00;;;;;;5131493;28;20059;-72
2021/05/08 10:00:36;;;;;;;12.00;7.37;;;14.20;48.20;;;;;;5132455;28;20043;-73
2021/05/08 10:03:13;;;;;;;10.90;7.57;;;14.10;46.90;;;;;;5132231;28;20054;-73
2021/05/08 10:05:41;;;;;;;11.97;7.83;;;14.00;47.10;;;;;;5131851;28;20070;-72
2021/05/08 10:08:09;;;;;;;11.60;8.80;;;14.00;47.90;;;;;;5132456;27;20043;-73
2021/05/08 10:10:35;;;;;;;12.37;8.03;;;14.00;48.30;;;;;;5131456;27;20072;-73
2021/05/08 10:13:09;;;;;;;11.63;8.67;;;14.00;48.80;;;;;;5131650;28;20055;-77
2021/05/08 10:15:36;;;;;;;13.67;9.40;;;14.00;48.50;;;;;;5131922;28;20047;-76
2021/05/08 10:18:04;;;;;;;14.57;8.73;;;14.00;48.50;;;;;;5131178;28;20393;-75
2021/05/08 10:20:31;;;;;;;12.43;9.17;;;13.90;48.50;;;;;;5132205;27;20039;-75
2021/05/08 10:23:03;;;;;;;12.63;9.10;;;13.80;49.20;;;;;;5136119;27;20107;-75
2021/05/08 10:25:29;;;;;;;;;;;13.80;49.40;;;;;;5135442;27;20407;-75
2021/05/08 10:27:55;;;;;;;12.90;9.53;;;13.70;49.60;;;;;;5135701;27;19920;-76
2021/05/08 10:30:31;;;;;;;13.00;9.80;;;13.80;50.20;;;;;;5135825;27;20054;-75
2021/05/08 10:32:58;;;;;;;12.70;9.60;;;13.80;50.00;;;;;;5135041;27;20495;-75
2021/05/08 10:35:46;;;;;;;13.13;9.67;;;13.90;49.90;;;;;;5135413;27;20090;-76
2021/05/08 10:38:19;;;;;;;12.60;9.80;;;14.00;49.10;;;;;;5136075;27;20138;-76
2021/05/08 10:41:03;;;;;;;12.47;9.30;;;14.00;49.40;;;;;;5135080;27;20043;-74
2021/05/08 10:43:47;;;;;;;15.73;9.93;;;14.00;49.00;;;;;;5135726;27;20510;-73
2021/05/08 10:46:17;;;;;;;10.73;9.63;;;14.00;49.00;;;;;;5135044;27;20067;-75
2021/05/08 10:49:09;;;;;;;12.17;9.90;;;14.10;50.00;;;;;;5135732;27;20049;-75
2021/05/08 10:51:53;;;;;;;17.33;9.52;;;14.20;49.70;;;;;;5132019;27;20118;-75
2021/05/08 10:54:45;;;;;;;13.60;10.47;;;14.30;49.00;;;;;;5158641;27;20415;-75
2021/05/08 10:57:19;;;;;;;16.43;10.90;;;14.40;49.60;;;;;;5130950;27;20046;-75
2021/05/08 11:00:07;;;;;;;13.33;10.70;;;14.40;49.60;;;;;;5133307;27;20081;-73
2021/05/08 11:02:58;;;;;;;12.80;9.77;;;14.50;49.70;;;;;;5135575;27;20053;-75
2021/05/08 11:05:34;;;;;;;14.90;9.95;;;14.50;49.80;;;;;;5135181;27;20100;-74
2021/05/08 11:08:27;;;;;;;15.33;10.73;;;14.60;49.70;;;;;;5134183;27;20066;-77
2021/05/08 11:10:53;;;;;;;14.57;11.17;;;14.60;49.30;;;;;;5134817;27;20093;-77
2021/05/08 11:13:21;;;;;;;14.40;10.57;;;14.70;49.90;;;;;;5135106;27;20142;-77
2021/05/08 11:15:52;;;;;;;13.43;10.80;;;14.70;50.40;;;;;;5134317;27;20494;-75
2021/05/08 11:18:33;;;;;;;14.10;10.55;;;14.80;50.00;;;;;;5133893;27;20130;-80
2021/05/08 11:21:03;;;;;;;14.17;10.73;;;14.70;49.10;;;;;;5134309;27;20051;-78
2021/05/08 11:23:46;;;;;;;15.27;10.60;;;14.70;49.40;;;;;;5134789;27;20090;-76
2021/05/08 11:29:14;;;;;;;13.30;10.17;;;14.60;49.60;;;;;;5133994;27;20531;-78
2021/05/08 11:31:45;;;;;;;12.53;8.80;;;14.70;48.80;;;;;;5134730;27;20039;-77
2021/05/08 11:34:30;;;;;;;20.70;11.30;;;14.70;49.10;;;;;;5133935;27;20138;-77
2021/05/08 11:37:01;;;;;;;16.43;11.47;;;14.70;48.40;;;;;;5133644;27;20059;-79
2021/05/08 11:39:32;;;;;;;15.20;10.43;;;14.70;49.40;;;;;;5134257;27;20051;-79
2021/05/08 11:42:11;;;;;;;13.45;10.38;;;14.70;49.70;;;;;;5134445;27;20092;-77
2021/05/08 11:44:38;;;;;;;14.47;10.43;;;14.70;50.00;;;;;;5134891;27;20043;-79
2021/05/08 11:47:27;;;;;;;14.70;10.63;;;14.70;49.90;;;;;;5134068;27;20047;-80
2021/05/08 11:50:18;;;;;;;13.87;9.17;;;14.70;50.00;;;;;;5133771;27;20139;-80
2021/05/08 11:52:49;;;;;;;12.30;7.63;;;14.60;50.30;;;;;;5133838;27;20074;-77
2021/05/08 11:55:22;;;;;;;9.38;7.32;;;14.60;49.70;;;;;;5133747;27;20055;-76
2021/05/08 11:57:59;;;;;;;10.03;6.77;;;14.60;49.50;;;;;;5133434;27;20043;-78
2021/05/08 12:00:29;;;;;;;11.20;7.27;;;14.50;49.40;;;;;;5134199;27;20045;-76
2021/05/08 12:03:15;;;;;;;7.83;6.57;;;14.40;49.50;;;;;;5134548;27;20044;-74
2021/05/08 12:05:46;;;;;;;8.10;6.00;;;14.30;49.80;;;;;;5131471;27;20043;-76
2021/05/08 12:08:17;;;;;;;10.55;6.20;;;14.20;50.00;;;;;;5133259;27;20043;-80
2021/05/08 12:10:44;;;;;;;8.90;6.38;;;14.10;50.40;;;;;;5133946;27;20059;-81
2021/05/08 12:13:11;;;;;;;8.00;6.20;;;14.10;50.30;;;;;;5134031;27;20058;-73
2021/05/08 12:15:42;;;;;;;8.23;6.10;;;14.10;50.10;;;;;;5133997;27;20043;-74
2021/05/08 12:18:12;;;;;;;8.98;6.13;;;14.20;50.30;;;;;;5133184;27;20074;-75
2021/05/08 12:20:42;;;;;;;8.37;6.60;;;14.20;50.00;;;;;;5134065;27;20039;-74
2021/05/08 12:23:13;;;;;;;8.57;5.80;;;14.20;49.70;;;;;;5133966;27;20074;-73
2021/05/08 12:25:39;;;;;;;;;;;14.20;49.90;;;;;;5133551;27;20051;-71
2021/05/08 12:28:21;;;;;;;6.97;5.80;;;14.20;49.90;;;;;;5133236;27;19979;-71
2021/05/08 12:30:48;;;;;;;;;;;14.20;49.70;;;;;;5133722;27;20043;-71
2021/05/08 12:33:19;;;;;;;8.53;5.17;;;14.10;49.70;;;;;;5132920;27;20010;-70
2021/05/08 12:35:46;;;;;;;7.43;6.00;;;14.10;50.60;;;;;;5133790;27;20043;-71
2021/05/08 12:38:23;;;;;;;6.33;5.20;;;14.10;50.70;;;;;;5132435;27;20053;-78
2021/05/08 12:40:49;;;;;;;8.70;6.27;;;14.10;50.90;;;;;;5133060;27;20506;-81
2021/05/08 12:43:31;;;;;;;7.97;5.90;;;14.10;51.10;;;;;;5132996;27;20043;-76
2021/05/08 12:46:11;;;;;;;7.77;6.70;;;14.10;51.10;;;;;;5132122;27;20556;-78
2021/05/08 12:48:39;;;;;;;9.17;6.73;;;14.10;52.10;;;;;;5133638;27;20470;-79
2021/05/08 12:51:28;;;;;;;8.47;7.37;;;14.00;52.60;;;;;;5132941;27;20088;-80
2021/05/08 12:54:19;;;;;;;8.03;6.50;;;14.00;54.10;;;;;;5132014;27;20578;-79
2021/05/08 12:56:46;;;;;;;10.13;6.45;;;13.90;54.90;;;;;;5124714;27;20055;-76
2021/05/08 12:59:11;;;;;;;9.97;7.70;;;13.80;55.10;;;;;;5123494;27;20062;-72
2021/05/08 13:01:39;;;;;;;9.53;7.83;;;13.70;56.00;;;;;;5132001;27;20510;-71